sensor_id;sensor_type;location;lat;lon;timestamp;P1;durP1;ratioP1;P2;durP2;ratioP2
6426;SDS011;3246;42.664;23.308;2023-12-20T00:00:34;139.30;;;87.00;;
6426;SDS011;3246;42.664;23.308;2023-12-20T00:03:02;141.40;;;87.20;;
6426;SDS011;3246;42.664;23.308;2023-12-20T00:05:29;143.80;;;89.23;;
6426;SDS011;3246;42.664;23.308;2023-12-20T00:07:57;134.70;;;88.73;;
6426;SDS011;3246;42.664;23.308;2023-12-20T00:10:23;132.53;;;80.67;;
6426;SDS011;3246;42.664;23.308;2023-12-20T00:12:50;139.80;;;84.47;;
6426;SDS011;3246;42.664;23.308;2023-12-20T00:15:18;133.13;;;82.90;;
6426;SDS011;3246;42.664;23.308;2023-12-20T00:17:45;134.00;;;84.47;;
6426;SDS011;3246;42.664;23.308;2023-12-20T00:20:12;131.03;;;80.73;;
6426;SDS011;3246;42.664;23.308;2023-12-20T00:22:39;134.83;;;82.00;;
6426;SDS011;3246;42.664;23.308;2023-12-20T00:25:06;129.30;;;81.90;;
6426;SDS011;3246;42.664;23.308;2023-12-20T00:27:33;142.13;;;88.67;;
6426;SDS011;3246;42.664;23.308;2023-12-20T00:30:00;137.73;;;83.73;;
6426;SDS011;3246;42.664;23.308;2023-12-20T00:32:28;134.73;;;83.23;;
6426;SDS011;3246;42.664;23.308;2023-12-20T00:34:55;128.40;;;81.03;;
6426;SDS011;3246;42.664;23.308;2023-12-20T00:37:21;124.10;;;76.07;;
6426;SDS011;3246;42.664;23.308;2023-12-20T00:39:49;120.17;;;73.77;;
6426;SDS011;3246;42.664;23.308;2023-12-20T00:42:15;119.90;;;75.17;;
6426;SDS011;3246;42.664;23.308;2023-12-20T00:44:42;120.43;;;77.83;;
6426;SDS011;3246;42.664;23.308;2023-12-20T00:47:09;116.00;;;75.53;;
6426;SDS011;3246;42.664;23.308;2023-12-20T00:49:38;122.30;;;77.10;;
6426;SDS011;3246;42.664;23.308;2023-12-20T00:52:05;121.67;;;73.30;;
6426;SDS011;3246;42.664;23.308;2023-12-20T00:54:32;119.60;;;73.53;;
6426;SDS011;3246;42.664;23.308;2023-12-20T00:56:59;123.67;;;77.57;;
6426;SDS011;3246;42.664;23.308;2023-12-20T00:59:26;112.63;;;69.30;;
6426;SDS011;3246;42.664;23.308;2023-12-20T01:01:52;113.67;;;72.93;;
6426;SDS011;3246;42.664;23.308;2023-12-20T01:04:19;120.17;;;72.97;;
6426;SDS011;3246;42.664;23.308;2023-12-20T01:06:47;121.17;;;76.37;;
6426;SDS011;3246;42.664;23.308;2023-12-20T01:09:14;119.03;;;74.20;;
6426;SDS011;3246;42.664;23.308;2023-12-20T01:11:41;110.23;;;74.47;;
6426;SDS011;3246;42.664;23.308;2023-12-20T01:14:08;125.47;;;75.50;;
6426;SDS011;3246;42.664;23.308;2023-12-20T01:16:34;120.13;;;78.90;;
6426;SDS011;3246;42.664;23.308;2023-12-20T01:19:01;126.73;;;76.63;;
6426;SDS011;3246;42.664;23.308;2023-12-20T01:21:28;109.57;;;74.17;;
6426;SDS011;3246;42.664;23.308;2023-12-20T01:23:56;110.67;;;74.37;;
6426;SDS011;3246;42.664;23.308;2023-12-20T01:26:23;109.57;;;69.37;;
6426;SDS011;3246;42.664;23.308;2023-12-20T01:28:50;118.90;;;72.57;;
6426;SDS011;3246;42.664;23.308;2023-12-20T01:31:16;109.77;;;67.63;;
6426;SDS011;3246;42.664;23.308;2023-12-20T01:33:43;117.53;;;71.73;;
6426;SDS011;3246;42.664;23.308;2023-12-20T01:36:10;108.90;;;69.40;;
6426;SDS011;3246;42.664;23.308;2023-12-20T01:38:37;123.30;;;75.30;;
6426;SDS011;3246;42.664;23.308;2023-12-20T01:41:05;117.27;;;71.90;;
6426;SDS011;3246;42.664;23.308;2023-12-20T01:43:32;123.00;;;72.33;;
6426;SDS011;3246;42.664;23.308;2023-12-20T01:45:59;131.13;;;76.57;;
6426;SDS011;3246;42.664;23.308;2023-12-20T01:48:26;132.20;;;80.80;;
6426;SDS011;3246;42.664;23.308;2023-12-20T01:50:54;144.00;;;87.53;;
6426;SDS011;3246;42.664;23.308;2023-12-20T01:53:22;140.40;;;86.40;;
6426;SDS011;3246;42.664;23.308;2023-12-20T01:55:52;138.87;;;82.90;;
6426;SDS011;3246;42.664;23.308;2023-12-20T01:58:22;133.00;;;81.40;;
6426;SDS011;3246;42.664;23.308;2023-12-20T02:00:49;123.17;;;76.33;;
6426;SDS011;3246;42.664;23.308;2023-12-20T02:03:16;124.60;;;76.40;;
6426;SDS011;3246;42.664;23.308;2023-12-20T02:05:44;112.80;;;66.80;;
6426;SDS011;3246;42.664;23.308;2023-12-20T02:08:13;112.27;;;65.70;;
6426;SDS011;3246;42.664;23.308;2023-12-20T02:10:40;136.93;;;81.07;;
6426;SDS011;3246;42.664;23.308;2023-12-20T02:13:07;115.20;;;72.23;;
6426;SDS011;3246;42.664;23.308;2023-12-20T02:15:35;125.03;;;78.10;;
6426;SDS011;3246;42.664;23.308;2023-12-20T02:18:03;124.80;;;78.07;;
6426;SDS011;3246;42.664;23.308;2023-12-20T02:20:30;113.90;;;68.50;;
6426;SDS011;3246;42.664;23.308;2023-12-20T02:22:58;113.07;;;71.80;;
6426;SDS011;3246;42.664;23.308;2023-12-20T02:25:25;117.93;;;72.23;;
6426;SDS011;3246;42.664;23.308;2023-12-20T02:27:52;114.40;;;69.70;;
6426;SDS011;3246;42.664;23.308;2023-12-20T02:30:19;118.77;;;73.40;;
6426;SDS011;3246;42.664;23.308;2023-12-20T02:32:45;104.00;;;63.80;;
6426;SDS011;3246;42.664;23.308;2023-12-20T02:35:12;103.87;;;65.77;;
6426;SDS011;3246;42.664;23.308;2023-12-20T02:37:39;108.90;;;65.90;;
6426;SDS011;3246;42.664;23.308;2023-12-20T02:40:07;97.87;;;59.63;;
6426;SDS011;3246;42.664;23.308;2023-12-20T02:42:35;108.13;;;61.43;;
6426;SDS011;3246;42.664;23.308;2023-12-20T02:45:02;104.93;;;62.20;;
6426;SDS011;3246;42.664;23.308;2023-12-20T02:47:29;103.97;;;66.03;;
6426;SDS011;3246;42.664;23.308;2023-12-20T02:49:56;101.37;;;58.97;;
6426;SDS011;3246;42.664;23.308;2023-12-20T02:52:23;88.23;;;55.37;;
6426;SDS011;3246;42.664;23.308;2023-12-20T02:54:50;89.60;;;55.20;;
6426;SDS011;3246;42.664;23.308;2023-12-20T02:57:18;93.80;;;53.93;;
6426;SDS011;3246;42.664;23.308;2023-12-20T02:59:44;92.23;;;53.77;;
6426;SDS011;3246;42.664;23.308;2023-12-20T03:02:11;70.37;;;46.13;;
6426;SDS011;3246;42.664;23.308;2023-12-20T03:04:38;69.00;;;41.77;;
6426;SDS011;3246;42.664;23.308;2023-12-20T03:07:05;66.00;;;41.07;;
6426;SDS011;3246;42.664;23.308;2023-12-20T03:09:31;72.37;;;42.40;;
6426;SDS011;3246;42.664;23.308;2023-12-20T03:11:58;71.77;;;44.77;;
6426;SDS011;3246;42.664;23.308;2023-12-20T03:14:26;69.47;;;42.10;;
6426;SDS011;3246;42.664;23.308;2023-12-20T03:16:53;60.67;;;39.67;;
6426;SDS011;3246;42.664;23.308;2023-12-20T03:19:20;70.87;;;40.93;;
6426;SDS011;3246;42.664;23.308;2023-12-20T03:21:46;65.33;;;37.50;;
6426;SDS011;3246;42.664;23.308;2023-12-20T03:24:13;60.97;;;36.30;;
6426;SDS011;3246;42.664;23.308;2023-12-20T03:26:40;56.00;;;36.37;;
6426;SDS011;3246;42.664;23.308;2023-12-20T03:29:07;66.30;;;37.17;;
6426;SDS011;3246;42.664;23.308;2023-12-20T03:31:35;57.03;;;33.47;;
6426;SDS011;3246;42.664;23.308;2023-12-20T03:34:01;51.87;;;31.37;;
6426;SDS011;3246;42.664;23.308;2023-12-20T03:36:28;63.20;;;32.60;;
6426;SDS011;3246;42.664;23.308;2023-12-20T03:38:55;51.63;;;30.77;;
6426;SDS011;3246;42.664;23.308;2023-12-20T03:41:22;55.67;;;32.67;;
6426;SDS011;3246;42.664;23.308;2023-12-20T03:43:48;52.07;;;32.27;;
6426;SDS011;3246;42.664;23.308;2023-12-20T03:46:15;52.73;;;32.27;;
6426;SDS011;3246;42.664;23.308;2023-12-20T03:48:43;56.93;;;34.53;;
6426;SDS011;3246;42.664;23.308;2023-12-20T03:51:10;57.47;;;35.37;;
6426;SDS011;3246;42.664;23.308;2023-12-20T03:53:37;78.40;;;38.93;;
6426;SDS011;3246;42.664;23.308;2023-12-20T03:56:05;70.00;;;38.80;;
6426;SDS011;3246;42.664;23.308;2023-12-20T03:58:32;57.77;;;35.80;;
6426;SDS011;3246;42.664;23.308;2023-12-20T04:00:59;65.40;;;35.47;;
6426;SDS011;3246;42.664;23.308;2023-12-20T04:03:26;55.67;;;34.93;;
6426;SDS011;3246;42.664;23.308;2023-12-20T04:05:55;59.77;;;36.93;;
6426;SDS011;3246;42.664;23.308;2023-12-20T04:08:21;72.17;;;39.67;;
6426;SDS011;3246;42.664;23.308;2023-12-20T04:10:48;61.63;;;36.70;;
6426;SDS011;3246;42.664;23.308;2023-12-20T04:13:15;61.90;;;38.33;;
6426;SDS011;3246;42.664;23.308;2023-12-20T04:15:42;63.13;;;37.00;;
6426;SDS011;3246;42.664;23.308;2023-12-20T04:18:09;59.17;;;34.90;;
6426;SDS011;3246;42.664;23.308;2023-12-20T04:20:36;59.13;;;34.93;;
6426;SDS011;3246;42.664;23.308;2023-12-20T04:23:04;60.40;;;37.00;;
6426;SDS011;3246;42.664;23.308;2023-12-20T04:25:30;60.90;;;34.30;;
6426;SDS011;3246;42.664;23.308;2023-12-20T04:27:57;62.43;;;37.50;;
6426;SDS011;3246;42.664;23.308;2023-12-20T04:30:24;60.20;;;36.43;;
6426;SDS011;3246;42.664;23.308;2023-12-20T04:32:51;58.33;;;38.00;;
6426;SDS011;3246;42.664;23.308;2023-12-20T04:35:17;61.07;;;37.80;;
6426;SDS011;3246;42.664;23.308;2023-12-20T04:37:44;54.83;;;37.87;;
6426;SDS011;3246;42.664;23.308;2023-12-20T04:40:12;62.53;;;38.30;;
6426;SDS011;3246;42.664;23.308;2023-12-20T04:42:39;71.60;;;42.10;;
6426;SDS011;3246;42.664;23.308;2023-12-20T04:45:06;65.60;;;43.73;;
6426;SDS011;3246;42.664;23.308;2023-12-20T04:47:33;70.87;;;39.83;;
6426;SDS011;3246;42.664;23.308;2023-12-20T04:50:00;62.83;;;40.43;;
6426;SDS011;3246;42.664;23.308;2023-12-20T04:52:27;68.37;;;40.50;;
6426;SDS011;3246;42.664;23.308;2023-12-20T04:54:54;74.23;;;43.13;;
6426;SDS011;3246;42.664;23.308;2023-12-20T04:57:22;70.57;;;41.67;;
6426;SDS011;3246;42.664;23.308;2023-12-20T04:59:48;82.20;;;43.17;;
6426;SDS011;3246;42.664;23.308;2023-12-20T05:02:15;83.27;;;45.37;;
6426;SDS011;3246;42.664;23.308;2023-12-20T05:04:42;78.40;;;41.33;;
6426;SDS011;3246;42.664;23.308;2023-12-20T05:07:09;65.37;;;39.27;;
6426;SDS011;3246;42.664;23.308;2023-12-20T05:09:35;93.37;;;41.63;;
6426;SDS011;3246;42.664;23.308;2023-12-20T05:12:02;67.43;;;40.93;;
6426;SDS011;3246;42.664;23.308;2023-12-20T05:14:31;93.33;;;47.07;;
6426;SDS011;3246;42.664;23.308;2023-12-20T05:16:58;83.70;;;44.93;;
6426;SDS011;3246;42.664;23.308;2023-12-20T05:19:24;101.13;;;44.43;;
6426;SDS011;3246;42.664;23.308;2023-12-20T05:21:51;106.93;;;48.03;;
6426;SDS011;3246;42.664;23.308;2023-12-20T05:24:18;112.50;;;50.30;;
6426;SDS011;3246;42.664;23.308;2023-12-20T05:26:45;110.27;;;48.17;;
6426;SDS011;3246;42.664;23.308;2023-12-20T05:29:12;116.07;;;53.40;;
6426;SDS011;3246;42.664;23.308;2023-12-20T05:31:40;109.60;;;54.47;;
6426;SDS011;3246;42.664;23.308;2023-12-20T05:34:06;124.43;;;55.37;;
6426;SDS011;3246;42.664;23.308;2023-12-20T05:36:33;99.63;;;50.00;;
6426;SDS011;3246;42.664;23.308;2023-12-20T05:39:01;109.57;;;53.23;;
6426;SDS011;3246;42.664;23.308;2023-12-20T05:41:28;106.37;;;53.13;;
6426;SDS011;3246;42.664;23.308;2023-12-20T05:43:55;119.93;;;54.30;;
6426;SDS011;3246;42.664;23.308;2023-12-20T05:46:23;119.00;;;57.97;;
6426;SDS011;3246;42.664;23.308;2023-12-20T05:48:51;101.13;;;55.97;;
6426;SDS011;3246;42.664;23.308;2023-12-20T05:51:17;104.00;;;51.33;;
6426;SDS011;3246;42.664;23.308;2023-12-20T05:53:44;98.97;;;52.00;;
6426;SDS011;3246;42.664;23.308;2023-12-20T05:56:11;108.67;;;52.50;;
6426;SDS011;3246;42.664;23.308;2023-12-20T05:58:38;97.03;;;50.03;;
6426;SDS011;3246;42.664;23.308;2023-12-20T06:01:05;93.47;;;49.10;;
6426;SDS011;3246;42.664;23.308;2023-12-20T06:03:33;99.83;;;52.30;;
6426;SDS011;3246;42.664;23.308;2023-12-20T06:06:05;91.47;;;46.60;;
6426;SDS011;3246;42.664;23.308;2023-12-20T06:08:32;102.90;;;52.37;;
6426;SDS011;3246;42.664;23.308;2023-12-20T06:10:59;102.50;;;52.23;;
6426;SDS011;3246;42.664;23.308;2023-12-20T06:13:26;102.83;;;49.87;;
6426;SDS011;3246;42.664;23.308;2023-12-20T06:15:53;84.00;;;49.83;;
6426;SDS011;3246;42.664;23.308;2023-12-20T06:18:20;100.67;;;48.63;;
6426;SDS011;3246;42.664;23.308;2023-12-20T06:20:47;106.90;;;50.93;;
6426;SDS011;3246;42.664;23.308;2023-12-20T06:23:16;113.13;;;51.03;;
6426;SDS011;3246;42.664;23.308;2023-12-20T06:25:43;98.13;;;49.07;;
6426;SDS011;3246;42.664;23.308;2023-12-20T06:28:10;96.17;;;48.73;;
6426;SDS011;3246;42.664;23.308;2023-12-20T06:30:39;93.80;;;47.17;;
6426;SDS011;3246;42.664;23.308;2023-12-20T06:33:06;95.67;;;53.07;;
6426;SDS011;3246;42.664;23.308;2023-12-20T06:35:35;112.43;;;49.77;;
6426;SDS011;3246;42.664;23.308;2023-12-20T06:38:01;97.77;;;49.30;;
6426;SDS011;3246;42.664;23.308;2023-12-20T06:40:30;99.83;;;47.00;;
6426;SDS011;3246;42.664;23.308;2023-12-20T06:42:56;97.70;;;49.73;;
6426;SDS011;3246;42.664;23.308;2023-12-20T06:45:24;100.07;;;52.07;;
6426;SDS011;3246;42.664;23.308;2023-12-20T06:47:51;91.00;;;49.43;;
6426;SDS011;3246;42.664;23.308;2023-12-20T06:50:19;88.33;;;48.17;;
6426;SDS011;3246;42.664;23.308;2023-12-20T06:52:46;79.83;;;48.27;;
6426;SDS011;3246;42.664;23.308;2023-12-20T06:55:13;91.07;;;45.90;;
6426;SDS011;3246;42.664;23.308;2023-12-20T06:57:41;96.17;;;50.73;;
6426;SDS011;3246;42.664;23.308;2023-12-20T07:00:08;86.17;;;48.53;;
6426;SDS011;3246;42.664;23.308;2023-12-20T07:02:38;98.00;;;49.00;;
6426;SDS011;3246;42.664;23.308;2023-12-20T07:05:05;95.53;;;50.50;;
6426;SDS011;3246;42.664;23.308;2023-12-20T07:07:33;93.57;;;49.90;;
6426;SDS011;3246;42.664;23.308;2023-12-20T07:10:00;87.93;;;48.50;;
6426;SDS011;3246;42.664;23.308;2023-12-20T07:12:26;97.83;;;49.23;;
6426;SDS011;3246;42.664;23.308;2023-12-20T07:14:54;100.50;;;51.00;;
6426;SDS011;3246;42.664;23.308;2023-12-20T07:17:22;111.10;;;51.40;;
6426;SDS011;3246;42.664;23.308;2023-12-20T07:19:48;106.83;;;55.03;;
6426;SDS011;3246;42.664;23.308;2023-12-20T07:22:15;103.70;;;52.33;;
6426;SDS011;3246;42.664;23.308;2023-12-20T07:24:42;94.70;;;50.40;;
6426;SDS011;3246;42.664;23.308;2023-12-20T07:27:09;110.50;;;54.40;;
6426;SDS011;3246;42.664;23.308;2023-12-20T07:29:35;102.27;;;53.37;;
6426;SDS011;3246;42.664;23.308;2023-12-20T07:32:04;94.33;;;52.10;;
6426;SDS011;3246;42.664;23.308;2023-12-20T07:34:31;110.33;;;51.87;;
6426;SDS011;3246;42.664;23.308;2023-12-20T07:36:58;103.67;;;53.07;;
6426;SDS011;3246;42.664;23.308;2023-12-20T07:39:25;108.33;;;56.83;;
6426;SDS011;3246;42.664;23.308;2023-12-20T07:41:51;112.20;;;56.17;;
6426;SDS011;3246;42.664;23.308;2023-12-20T07:44:18;113.00;;;55.37;;
6426;SDS011;3246;42.664;23.308;2023-12-20T07:46:45;118.43;;;58.77;;
6426;SDS011;3246;42.664;23.308;2023-12-20T07:49:15;111.63;;;57.87;;
6426;SDS011;3246;42.664;23.308;2023-12-20T07:51:41;126.60;;;57.47;;
6426;SDS011;3246;42.664;23.308;2023-12-20T07:54:08;114.87;;;61.17;;
6426;SDS011;3246;42.664;23.308;2023-12-20T07:56:35;126.13;;;58.40;;
6426;SDS011;3246;42.664;23.308;2023-12-20T07:59:02;121.07;;;61.87;;
6426;SDS011;3246;42.664;23.308;2023-12-20T08:01:28;120.27;;;58.77;;
6426;SDS011;3246;42.664;23.308;2023-12-20T08:03:55;130.47;;;59.33;;
6426;SDS011;3246;42.664;23.308;2023-12-20T08:06:23;138.87;;;64.60;;
6426;SDS011;3246;42.664;23.308;2023-12-20T08:08:50;128.83;;;60.17;;
6426;SDS011;3246;42.664;23.308;2023-12-20T08:11:17;126.47;;;59.83;;
6426;SDS011;3246;42.664;23.308;2023-12-20T08:13:43;124.93;;;59.77;;
6426;SDS011;3246;42.664;23.308;2023-12-20T08:16:10;131.27;;;61.60;;
6426;SDS011;3246;42.664;23.308;2023-12-20T08:18:38;121.33;;;58.63;;
6426;SDS011;3246;42.664;23.308;2023-12-20T08:21:05;148.30;;;63.03;;
6426;SDS011;3246;42.664;23.308;2023-12-20T08:23:35;130.77;;;59.40;;
6426;SDS011;3246;42.664;23.308;2023-12-20T08:26:03;132.70;;;63.47;;
6426;SDS011;3246;42.664;23.308;2023-12-20T08:28:31;132.00;;;63.10;;
6426;SDS011;3246;42.664;23.308;2023-12-20T08:30:57;145.23;;;69.17;;
6426;SDS011;3246;42.664;23.308;2023-12-20T08:33:24;141.80;;;68.13;;
6426;SDS011;3246;42.664;23.308;2023-12-20T08:35:51;137.33;;;66.87;;
6426;SDS011;3246;42.664;23.308;2023-12-20T08:38:18;122.37;;;63.77;;
6426;SDS011;3246;42.664;23.308;2023-12-20T08:40:46;142.43;;;69.43;;
6426;SDS011;3246;42.664;23.308;2023-12-20T08:43:13;136.40;;;66.70;;
6426;SDS011;3246;42.664;23.308;2023-12-20T08:45:40;139.43;;;66.47;;
6426;SDS011;3246;42.664;23.308;2023-12-20T08:48:07;142.80;;;67.60;;
6426;SDS011;3246;42.664;23.308;2023-12-20T08:50:34;137.20;;;66.47;;
6426;SDS011;3246;42.664;23.308;2023-12-20T08:53:01;142.43;;;66.77;;
6426;SDS011;3246;42.664;23.308;2023-12-20T08:55:28;136.23;;;68.43;;
6426;SDS011;3246;42.664;23.308;2023-12-20T08:57:57;131.13;;;65.10;;
6426;SDS011;3246;42.664;23.308;2023-12-20T09:00:25;149.13;;;69.03;;
6426;SDS011;3246;42.664;23.308;2023-12-20T09:02:52;139.60;;;68.80;;
6426;SDS011;3246;42.664;23.308;2023-12-20T09:05:19;139.17;;;69.93;;
6426;SDS011;3246;42.664;23.308;2023-12-20T09:07:46;156.00;;;71.37;;
6426;SDS011;3246;42.664;23.308;2023-12-20T09:10:13;135.60;;;67.87;;
6426;SDS011;3246;42.664;23.308;2023-12-20T09:12:39;139.57;;;70.03;;
6426;SDS011;3246;42.664;23.308;2023-12-20T09:15:09;149.30;;;72.47;;
6426;SDS011;3246;42.664;23.308;2023-12-20T09:17:35;131.13;;;66.43;;
6426;SDS011;3246;42.664;23.308;2023-12-20T09:20:02;149.20;;;71.63;;
6426;SDS011;3246;42.664;23.308;2023-12-20T09:22:31;138.03;;;66.53;;
6426;SDS011;3246;42.664;23.308;2023-12-20T09:24:58;136.03;;;71.00;;
6426;SDS011;3246;42.664;23.308;2023-12-20T09:27:25;152.77;;;75.53;;
6426;SDS011;3246;42.664;23.308;2023-12-20T09:29:52;140.63;;;66.40;;
6426;SDS011;3246;42.664;23.308;2023-12-20T09:32:20;146.00;;;68.07;;
6426;SDS011;3246;42.664;23.308;2023-12-20T09:34:47;147.90;;;72.07;;
6426;SDS011;3246;42.664;23.308;2023-12-20T09:37:14;138.23;;;69.33;;
6426;SDS011;3246;42.664;23.308;2023-12-20T09:39:40;141.47;;;71.47;;
6426;SDS011;3246;42.664;23.308;2023-12-20T09:42:07;140.67;;;69.63;;
6426;SDS011;3246;42.664;23.308;2023-12-20T09:44:37;141.13;;;66.43;;
6426;SDS011;3246;42.664;23.308;2023-12-20T09:47:07;149.40;;;70.17;;
6426;SDS011;3246;42.664;23.308;2023-12-20T09:49:36;134.63;;;68.77;;
6426;SDS011;3246;42.664;23.308;2023-12-20T09:52:04;144.70;;;74.80;;
6426;SDS011;3246;42.664;23.308;2023-12-20T09:54:34;143.90;;;73.63;;
6426;SDS011;3246;42.664;23.308;2023-12-20T09:57:00;133.97;;;68.40;;
6426;SDS011;3246;42.664;23.308;2023-12-20T09:59:27;129.67;;;68.50;;
6426;SDS011;3246;42.664;23.308;2023-12-20T10:01:54;147.30;;;68.47;;
6426;SDS011;3246;42.664;23.308;2023-12-20T10:04:23;145.73;;;72.43;;
6426;SDS011;3246;42.664;23.308;2023-12-20T10:06:52;130.97;;;68.17;;
6426;SDS011;3246;42.664;23.308;2023-12-20T10:09:19;133.00;;;70.63;;
6426;SDS011;3246;42.664;23.308;2023-12-20T10:11:45;131.47;;;68.40;;
6426;SDS011;3246;42.664;23.308;2023-12-20T10:14:12;124.17;;;65.50;;
6426;SDS011;3246;42.664;23.308;2023-12-20T10:16:40;124.87;;;64.07;;
6426;SDS011;3246;42.664;23.308;2023-12-20T10:19:07;117.93;;;65.83;;
6426;SDS011;3246;42.664;23.308;2023-12-20T10:21:34;129.43;;;65.97;;
6426;SDS011;3246;42.664;23.308;2023-12-20T10:24:02;125.27;;;68.30;;
6426;SDS011;3246;42.664;23.308;2023-12-20T10:26:29;117.67;;;66.07;;
6426;SDS011;3246;42.664;23.308;2023-12-20T10:28:56;127.80;;;66.23;;
6426;SDS011;3246;42.664;23.308;2023-12-20T10:31:26;129.73;;;69.17;;
6426;SDS011;3246;42.664;23.308;2023-12-20T10:33:55;135.77;;;69.87;;
6426;SDS011;3246;42.664;23.308;2023-12-20T10:36:23;132.73;;;65.83;;
6426;SDS011;3246;42.664;23.308;2023-12-20T10:38:52;139.63;;;69.03;;
6426;SDS011;3246;42.664;23.308;2023-12-20T10:41:22;135.00;;;73.57;;
6426;SDS011;3246;42.664;23.308;2023-12-20T10:43:53;134.70;;;71.53;;
6426;SDS011;3246;42.664;23.308;2023-12-20T10:46:21;147.87;;;74.00;;
6426;SDS011;3246;42.664;23.308;2023-12-20T10:48:48;148.80;;;77.53;;
6426;SDS011;3246;42.664;23.308;2023-12-20T10:51:18;140.83;;;72.23;;
6426;SDS011;3246;42.664;23.308;2023-12-20T10:53:45;133.13;;;73.57;;
6426;SDS011;3246;42.664;23.308;2023-12-20T10:56:15;143.57;;;76.33;;
6426;SDS011;3246;42.664;23.308;2023-12-20T10:58:45;143.50;;;77.87;;
6426;SDS011;3246;42.664;23.308;2023-12-20T11:01:12;135.83;;;76.27;;
6426;SDS011;3246;42.664;23.308;2023-12-20T11:03:42;153.87;;;76.20;;
6426;SDS011;3246;42.664;23.308;2023-12-20T11:06:16;154.27;;;77.87;;
6426;SDS011;3246;42.664;23.308;2023-12-20T11:08:55;153.17;;;76.67;;
6426;SDS011;3246;42.664;23.308;2023-12-20T11:11:35;141.30;;;74.70;;
6426;SDS011;3246;42.664;23.308;2023-12-20T11:14:06;158.50;;;80.73;;
6426;SDS011;3246;42.664;23.308;2023-12-20T11:16:39;148.87;;;83.43;;
6426;SDS011;3246;42.664;23.308;2023-12-20T11:19:07;164.67;;;85.73;;
6426;SDS011;3246;42.664;23.308;2023-12-20T11:21:34;148.70;;;83.90;;
6426;SDS011;3246;42.664;23.308;2023-12-20T11:24:01;153.87;;;79.43;;
6426;SDS011;3246;42.664;23.308;2023-12-20T11:26:29;152.80;;;82.40;;
6426;SDS011;3246;42.664;23.308;2023-12-20T11:29:02;144.87;;;80.37;;
6426;SDS011;3246;42.664;23.308;2023-12-20T11:32:01;146.57;;;82.50;;
6426;SDS011;3246;42.664;23.308;2023-12-20T11:34:29;150.53;;;74.37;;
6426;SDS011;3246;42.664;23.308;2023-12-20T11:36:58;163.63;;;80.73;;
6426;SDS011;3246;42.664;23.308;2023-12-20T11:39:26;157.60;;;78.60;;
6426;SDS011;3246;42.664;23.308;2023-12-20T11:41:54;149.17;;;73.90;;
6426;SDS011;3246;42.664;23.308;2023-12-20T11:44:22;145.80;;;72.40;;
6426;SDS011;3246;42.664;23.308;2023-12-20T11:46:53;134.10;;;71.17;;
6426;SDS011;3246;42.664;23.308;2023-12-20T11:49:23;144.00;;;73.93;;
6426;SDS011;3246;42.664;23.308;2023-12-20T11:51:50;132.07;;;67.40;;
6426;SDS011;3246;42.664;23.308;2023-12-20T11:54:17;130.60;;;68.67;;
6426;SDS011;3246;42.664;23.308;2023-12-20T11:56:44;132.87;;;66.60;;
6426;SDS011;3246;42.664;23.308;2023-12-20T11:59:12;119.87;;;63.40;;
6426;SDS011;3246;42.664;23.308;2023-12-20T12:01:39;135.93;;;67.13;;
6426;SDS011;3246;42.664;23.308;2023-12-20T12:04:07;129.73;;;66.33;;
6426;SDS011;3246;42.664;23.308;2023-12-20T12:06:34;118.17;;;64.30;;
6426;SDS011;3246;42.664;23.308;2023-12-20T12:09:00;119.07;;;61.03;;
6426;SDS011;3246;42.664;23.308;2023-12-20T12:11:29;122.93;;;60.47;;
6426;SDS011;3246;42.664;23.308;2023-12-20T12:13:56;126.23;;;61.03;;
6426;SDS011;3246;42.664;23.308;2023-12-20T12:16:22;131.70;;;60.03;;
6426;SDS011;3246;42.664;23.308;2023-12-20T12:18:55;125.10;;;60.83;;
6426;SDS011;3246;42.664;23.308;2023-12-20T12:21:24;117.70;;;61.50;;
6426;SDS011;3246;42.664;23.308;2023-12-20T12:23:51;121.17;;;63.60;;
6426;SDS011;3246;42.664;23.308;2023-12-20T12:26:18;120.50;;;61.43;;
6426;SDS011;3246;42.664;23.308;2023-12-20T12:28:45;119.47;;;57.10;;
6426;SDS011;3246;42.664;23.308;2023-12-20T12:31:14;118.00;;;58.40;;
6426;SDS011;3246;42.664;23.308;2023-12-20T12:33:41;118.40;;;60.77;;
6426;SDS011;3246;42.664;23.308;2023-12-20T12:36:09;127.67;;;61.60;;
6426;SDS011;3246;42.664;23.308;2023-12-20T12:38:37;115.13;;;61.87;;
6426;SDS011;3246;42.664;23.308;2023-12-20T12:41:04;123.47;;;65.20;;
6426;SDS011;3246;42.664;23.308;2023-12-20T12:43:32;114.60;;;61.60;;
6426;SDS011;3246;42.664;23.308;2023-12-20T12:45:59;127.47;;;64.90;;
6426;SDS011;3246;42.664;23.308;2023-12-20T12:48:26;127.83;;;63.13;;
6426;SDS011;3246;42.664;23.308;2023-12-20T12:50:53;127.23;;;66.17;;
6426;SDS011;3246;42.664;23.308;2023-12-20T12:53:24;116.53;;;62.27;;
6426;SDS011;3246;42.664;23.308;2023-12-20T12:55:52;115.03;;;62.53;;
6426;SDS011;3246;42.664;23.308;2023-12-20T12:58:19;123.33;;;64.80;;
6426;SDS011;3246;42.664;23.308;2023-12-20T13:00:47;116.70;;;60.37;;
6426;SDS011;3246;42.664;23.308;2023-12-20T13:03:15;114.63;;;62.17;;
6426;SDS011;3246;42.664;23.308;2023-12-20T13:05:41;112.67;;;58.50;;
6426;SDS011;3246;42.664;23.308;2023-12-20T13:08:09;113.80;;;59.63;;
6426;SDS011;3246;42.664;23.308;2023-12-20T13:10:37;114.97;;;61.33;;
6426;SDS011;3246;42.664;23.308;2023-12-20T13:13:05;113.63;;;60.13;;
6426;SDS011;3246;42.664;23.308;2023-12-20T13:15:32;118.03;;;59.03;;
6426;SDS011;3246;42.664;23.308;2023-12-20T13:17:58;111.07;;;58.13;;
6426;SDS011;3246;42.664;23.308;2023-12-20T13:20:26;107.90;;;56.53;;
6426;SDS011;3246;42.664;23.308;2023-12-20T13:22:52;103.07;;;56.80;;
6426;SDS011;3246;42.664;23.308;2023-12-20T13:25:19;108.77;;;58.63;;
6426;SDS011;3246;42.664;23.308;2023-12-20T13:27:46;116.43;;;61.73;;
6426;SDS011;3246;42.664;23.308;2023-12-20T13:30:14;126.90;;;72.07;;
6426;SDS011;3246;42.664;23.308;2023-12-20T13:32:42;130.30;;;75.93;;
6426;SDS011;3246;42.664;23.308;2023-12-20T13:35:09;129.97;;;70.73;;
6426;SDS011;3246;42.664;23.308;2023-12-20T13:37:36;112.77;;;59.50;;
6426;SDS011;3246;42.664;23.308;2023-12-20T13:40:03;117.93;;;58.17;;
6426;SDS011;3246;42.664;23.308;2023-12-20T13:42:31;99.27;;;57.00;;
6426;SDS011;3246;42.664;23.308;2023-12-20T13:44:57;112.20;;;58.03;;
6426;SDS011;3246;42.664;23.308;2023-12-20T13:47:26;111.30;;;58.70;;
6426;SDS011;3246;42.664;23.308;2023-12-20T13:49:52;112.53;;;56.77;;
6426;SDS011;3246;42.664;23.308;2023-12-20T13:52:19;115.77;;;59.20;;
6426;SDS011;3246;42.664;23.308;2023-12-20T13:54:46;113.97;;;55.50;;
6426;SDS011;3246;42.664;23.308;2023-12-20T13:57:12;109.07;;;55.73;;
6426;SDS011;3246;42.664;23.308;2023-12-20T13:59:39;103.47;;;56.90;;
6426;SDS011;3246;42.664;23.308;2023-12-20T14:02:06;110.80;;;56.03;;
6426;SDS011;3246;42.664;23.308;2023-12-20T14:04:34;107.30;;;57.23;;
6426;SDS011;3246;42.664;23.308;2023-12-20T14:07:01;105.73;;;55.90;;
6426;SDS011;3246;42.664;23.308;2023-12-20T14:09:28;105.73;;;54.23;;
6426;SDS011;3246;42.664;23.308;2023-12-20T14:11:54;119.57;;;56.80;;
6426;SDS011;3246;42.664;23.308;2023-12-20T14:14:22;117.20;;;57.20;;
6426;SDS011;3246;42.664;23.308;2023-12-20T14:16:49;119.63;;;56.20;;
6426;SDS011;3246;42.664;23.308;2023-12-20T14:19:16;116.30;;;57.87;;
6426;SDS011;3246;42.664;23.308;2023-12-20T14:21:44;113.30;;;55.77;;
6426;SDS011;3246;42.664;23.308;2023-12-20T14:24:12;122.50;;;57.67;;
6426;SDS011;3246;42.664;23.308;2023-12-20T14:26:39;129.47;;;58.57;;